Time;durP1;ratioP1;P1;durP2;ratioP2;P2;SDS_P1;SDS_P2;PMS_P1;PMS_P2;Temp;Humidity;BMP_temperature;BMP_pressure;BME280_temperature;BME280_humidity;BME280_pressure;Samples;Min_cycle;Max_cycle;Signal;HPM_P1;HPM_P2
2022/11/28 00:01:41;;;;;;;;;;;5.60;99.90;;;;;;4946769;28;19934;-74
2022/11/28 00:04:07;;;;;;;;;;;5.60;99.90;;;;;;4641215;28;19957;-74
2022/11/28 00:06:35;;;;;;;;;;;5.60;99.90;;;;;;4793672;28;20226;-74
2022/11/28 00:09:01;;;;;;;;;;;5.60;99.90;;;;;;4946596;28;19926;-74
2022/11/28 00:11:27;;;;;;;;;;;5.60;99.90;;;;;;4790258;28;19957;-74
2022/11/28 00:13:52;;;;;;;;;;;5.60;99.90;;;;;;4954028;28;19930;-74
2022/11/28 00:16:22;;;;;;;;;;;5.60;99.90;;;;;;4807224;29;19981;-74
2022/11/28 00:18:52;;;;;;;;;;;5.60;99.90;;;;;;4947944;28;19926;-75
2022/11/28 00:21:18;;;;;;;;;;;5.60;99.90;;;;;;4774618;28;20359;-74
2022/11/28 00:23:44;;;;;;;;;;;5.60;99.90;;;;;;4931413;28;20045;-74
2022/11/28 00:26:15;;;;;;;;;;;5.60;99.90;;;;;;4949293;28;19930;-75
2022/11/28 00:28:40;;;;;;;;;;;5.60;99.90;;;;;;4844509;28;20362;-74
2022/11/28 00:31:10;;;;;;;;;;;5.60;99.90;;;;;;4957021;28;20005;-75
2022/11/28 00:33:36;;;;;;;;;;;5.60;99.90;;;;;;4818240;28;19923;-75
2022/11/28 00:36:02;;;;;;;;;;;5.60;99.90;;;;;;4930643;28;20314;-75
2022/11/28 00:38:32;;;;;;;;;;;5.60;99.90;;;;;;4754787;28;19930;-74
2022/11/28 00:41:02;;;;;;;;;;;5.60;99.90;;;;;;4921062;29;19931;-74
2022/11/28 00:43:27;;;;;;;;;;;5.60;99.90;;;;;;4948042;28;20456;-75
2022/11/28 00:45:53;;;;;;;;;;;5.60;99.90;;;;;;4832768;28;20076;-74
2022/11/28 00:48:19;;;;;;;;;;;5.60;99.90;;;;;;4953123;28;19926;-75
2022/11/28 00:50:45;;;;;;;;;;;5.60;99.90;;;;;;4807105;29;19922;-75
2022/11/28 00:53:10;;;;;;;;;;;5.60;99.90;;;;;;4946820;28;19926;-75
2022/11/28 00:55:39;;;;;;;;;;;5.60;99.90;;;;;;4832690;28;19944;-74
2022/11/28 00:58:05;;;;;;;;;;;5.60;99.90;;;;;;4950900;28;19926;-75
2022/11/28 01:00:31;;;;;;;;;;;5.60;99.90;;;;;;4957637;28;19988;-75
2022/11/28 01:02:56;;;;;;;;;;;5.60;99.90;;;;;;4952358;28;20402;-75
2022/11/28 01:05:42;;;;;;;;;;;5.60;99.90;;;;;;4755060;28;19926;-74
2022/11/28 01:08:08;;;;;;;;;;;5.50;99.90;;;;;;4917772;28;20595;-75
2022/11/28 01:10:47;;;;;;;;;;;5.50;99.90;;;;;;4807269;28;19969;-74
2022/11/28 01:13:12;;;;;;;;;;;5.50;99.90;;;;;;4924854;28;19969;-74
2022/11/28 01:15:41;;;;;;;;;;;5.50;99.90;;;;;;4947507;28;19964;-74
2022/11/28 01:18:07;;;;;;;;;;;5.50;99.90;;;;;;4821573;28;19926;-74
2022/11/28 01:20:32;;;;;;;;;;;5.50;99.90;;;;;;4944922;28;19926;-75
2022/11/28 01:22:58;;;;;;;;;;;5.50;99.90;;;;;;4708189;28;19926;-74
2022/11/28 01:25:24;;;;;;;;;;;5.50;99.90;;;;;;4712371;29;20007;-74
2022/11/28 01:27:49;;;;;;;;;;;5.50;99.90;;;;;;4941928;28;20021;-74
2022/11/28 01:30:15;;;;;;;;;;;5.50;99.90;;;;;;4961420;28;19926;-74
2022/11/28 01:32:41;;;;;;;;;;;5.50;99.90;;;;;;4945387;28;19966;-74
2022/11/28 01:35:06;;;;;;;;;;;5.50;99.90;;;;;;4946699;28;20468;-74
2022/11/28 01:37:32;;;;;;;;;;;5.50;99.90;;;;;;4923836;28;20530;-74
2022/11/28 01:39:57;;;;;;;;;;;5.50;99.90;;;;;;4949645;28;19931;-74
2022/11/28 01:42:23;;;;;;;;;;;5.50;99.90;;;;;;4958236;28;19978;-74
2022/11/28 01:44:49;;;;;;;;;;;5.50;99.90;;;;;;4780213;28;19926;-74
2022/11/28 01:47:15;;;;;;;;;;;5.50;99.90;;;;;;4957817;28;19922;-74
2022/11/28 01:49:41;;;;;;;;;;;5.50;99.90;;;;;;4935061;28;19931;-74
2022/11/28 01:52:10;;;;;;;;;;;5.50;99.90;;;;;;4934020;29;19927;-74
2022/11/28 01:54:36;;;;;;;;;;;5.50;99.90;;;;;;4947748;28;20081;-74
2022/11/28 01:57:04;;;;;;;;;;;5.60;99.90;;;;;;4958525;28;19926;-74
2022/11/28 01:59:32;;;;;;;;;;;5.50;99.90;;;;;;4766776;28;20025;-74
2022/11/28 02:01:58;;;;;;;;;;;5.60;99.90;;;;;;4952386;28;20449;-74
2022/11/28 02:04:27;;;;;;;;;;;5.60;99.90;;;;;;4778482;28;20032;-73
2022/11/28 02:06:53;;;;;;;;;;;5.60;99.90;;;;;;4960104;28;19926;-74
2022/11/28 02:09:20;;;;;;;;;;;5.60;99.90;;;;;;4953361;28;19934;-74
2022/11/28 02:11:48;;;;;;;;;;;5.60;99.90;;;;;;4962032;28;19929;-74
2022/11/28 02:14:17;;;;;;;;;;;5.60;99.90;;;;;;4800794;28;20341;-74
2022/11/28 02:16:51;;;;;;;;;;;5.60;99.90;;;;;;4957715;28;19922;-74
2022/11/28 02:19:23;;;;;;;;;;;5.60;99.90;;;;;;4949812;28;19927;-74
2022/11/28 02:22:10;;;;;;;;;;;5.70;99.90;;;;;;4769122;28;19926;-74
2022/11/28 02:24:38;;;;;;;;;;;5.60;99.90;;;;;;4950776;28;19926;-74
2022/11/28 02:27:16;;;;;;;;;;;5.70;99.90;;;;;;4949379;28;20736;-74
2022/11/28 02:29:44;;;;;;;;;;;5.70;99.90;;;;;;4946907;28;19931;-74
2022/11/28 02:32:11;;;;;;;;;;;5.70;99.90;;;;;;4796746;28;19926;-74
2022/11/28 02:34:42;;;;;;;;;;;5.70;99.90;;;;;;4887899;28;19926;-74
2022/11/28 02:37:31;;;;;;;;;;;5.70;99.90;;;;;;4898791;28;19926;-74
2022/11/28 02:39:57;;;;;;;;;;;5.80;99.90;;;;;;4925597;29;19942;-74
2022/11/28 02:42:27;;;;;;;;;;;5.80;99.90;;;;;;4797530;29;19926;-74
2022/11/28 02:45:01;;;;;;;;;;;5.80;99.90;;;;;;4757270;29;19927;-74
2022/11/28 02:47:32;;;;;;;;;;;5.80;99.90;;;;;;4920147;29;19947;-74
2022/11/28 02:50:19;;;;;;;;;;;5.80;99.90;;;;;;4861311;28;20828;-74
2022/11/28 02:52:50;;;;;;;;;;;5.80;99.90;;;;;;4844759;29;19930;-74
2022/11/28 02:55:16;;;;;;;;;;;5.90;99.90;;;;;;4928013;28;19946;-74
2022/11/28 02:57:47;;;;;;;;;;;5.90;99.90;;;;;;4789034;29;20562;-74
2022/11/28 03:00:30;;;;;;;;;;;5.90;99.90;;;;;;4927701;29;20592;-74
2022/11/28 03:03:04;;;;;;;;;;;5.90;99.90;;;;;;4780178;29;19923;-74
2022/11/28 03:05:39;;;;;;;;;;;5.90;99.90;;;;;;4930221;28;19954;-74
2022/11/28 03:08:30;;;;;;;;;;;6.00;99.90;;;;;;4801244;29;19973;-74
2022/11/28 03:11:20;;;;;;;;;;;5.90;99.90;;;;;;4930460;29;20037;-74
2022/11/28 03:13:55;;;;;;;;;;;6.00;99.90;;;;;;4812939;29;20520;-74
2022/11/28 03:16:24;;;;;;;;;;;6.00;99.90;;;;;;4892259;29;19926;-74
2022/11/28 03:19:09;;;;;;;;;;;6.00;99.90;;;;;;4929543;28;19931;-74
2022/11/28 03:21:37;;;;;;;;;;;6.00;99.90;;;;;;4784595;29;19938;-74
2022/11/28 03:24:19;;;;;;;;;;;6.00;99.90;;;;;;4866799;28;19922;-74
2022/11/28 03:26:44;;;;;;;;;;;6.00;99.90;;;;;;4944142;28;19923;-74
2022/11/28 03:29:22;;;;;;;;;;;6.00;99.90;;;;;;4823465;28;19922;-74
2022/11/28 03:31:59;;;;;;;;;;;6.00;99.90;;;;;;4945625;28;19981;-74
2022/11/28 03:34:30;;;;;;;;;;;6.00;99.90;;;;;;4581680;29;20658;-74
2022/11/28 03:37:01;;;;;;;;;;;6.00;99.90;;;;;;4594696;29;19934;-74
2022/11/28 03:39:30;;;;;;;;;;;6.00;99.90;;;;;;4698431;28;19981;-74
2022/11/28 03:41:58;;;;;;;;;;;6.10;99.90;;;;;;4961264;28;19926;-74
2022/11/28 03:44:27;;;;;;;;;;;6.10;99.90;;;;;;4960924;28;20083;-74
2022/11/28 03:46:55;;;;;;;;;;;6.10;99.90;;;;;;4936767;28;19933;-74
2022/11/28 03:49:26;;;;;;;;;;;6.10;99.90;;;;;;4954602;28;20088;-74
2022/11/28 03:51:53;;;;;;;;;;;6.10;99.90;;;;;;4819720;28;19930;-74
2022/11/28 03:54:54;;;;;;;;;;;6.10;99.90;;;;;;4958293;28;19977;-74
2022/11/28 03:57:25;;;;;;;;;;;6.10;99.90;;;;;;4762433;29;20326;-74
2022/11/28 03:59:58;;;;;;;;;;;6.20;99.90;;;;;;4872147;28;20021;-74
2022/11/28 04:02:37;;;;;;;;;;;6.20;99.90;;;;;;4970889;28;20739;-74
2022/11/28 04:05:03;;;;;;;;;;;6.20;99.90;;;;;;4962739;28;19932;-74
2022/11/28 04:07:28;;;;;;;;;;;6.20;99.90;;;;;;4775200;28;21138;-73
2022/11/28 04:09:54;;;;;;;;;;;6.20;99.90;;;;;;4840386;28;20333;-74
2022/11/28 04:12:42;;;;;;;;;;;6.20;99.90;;;;;;4947833;28;19934;-74
2022/11/28 04:15:13;;;;;;;;;;;6.20;99.90;;;;;;4935427;28;19926;-74
2022/11/28 04:17:58;;;;;;;;;;;6.20;99.90;;;;;;4947820;28;19973;-74
2022/11/28 04:20:45;;;;;;;;;;;6.30;99.90;;;;;;4777895;28;19934;-74
2022/11/28 04:23:13;;;;;;;;;;;6.30;99.90;;;;;;4943332;28;20770;-74
2022/11/28 04:25:41;;;;;;;;;;;6.30;99.90;;;;;;4908821;28;19926;-73
2022/11/28 04:28:12;;;;;;;;;;;6.30;99.90;;;;;;4837418;28;19930;-74
2022/11/28 04:30:38;;;;;;;;;;;6.30;99.90;;;;;;4903825;28;20394;-73
2022/11/28 04:33:06;;;;;;;;;;;6.30;99.90;;;;;;4884641;28;20365;-74
2022/11/28 04:35:34;;;;;;;;;;;6.30;99.90;;;;;;4950595;28;20017;-74
2022/11/28 04:38:01;;;;;;;;;;;6.30;99.90;;;;;;4959930;28;20361;-74
2022/11/28 04:40:37;;;;;;;;;;;6.40;99.90;;;;;;4678856;28;20767;-73
2022/11/28 04:43:07;;;;;;;;;;;6.40;99.90;;;;;;4615816;28;19931;-73
2022/11/28 04:45:34;;;;;;;;;;;6.40;99.90;;;;;;4972788;28;19926;-74
2022/11/28 04:48:00;;;;;;;;;;;6.40;99.90;;;;;;4720699;28;20002;-74
2022/11/28 04:50:30;;;;;;;;;;;6.40;99.90;;;;;;4943279;29;19922;-74
2022/11/28 04:52:55;;;;;;;;;;;6.40;99.90;;;;;;4945943;28;19923;-74
2022/11/28 04:55:43;;;;;;;;;;;6.40;99.90;;;;;;4954859;28;20402;-74
2022/11/28 04:58:13;;;;;;;;;;;6.50;99.90;;;;;;4951665;28;20294;-74
2022/11/28 05:00:39;;;;;;;;;;;6.50;99.90;;;;;;4909405;28;19934;-75
2022/11/28 05:03:06;;;;;;;;;;;6.50;99.90;;;;;;4876293;28;20541;-75
2022/11/28 05:05:48;;;;;;;;;;;6.50;99.90;;;;;;4817815;28;19996;-75
2022/11/28 05:08:14;;;;;;;;;;;6.50;99.90;;;;;;4745033;28;19982;-75
2022/11/28 05:10:40;;;;;;;;;;;6.50;99.90;;;;;;4927181;28;20407;-76
2022/11/28 05:13:06;;;;;;;;;;;6.60;99.90;;;;;;4778082;28;19969;-76
2022/11/28 05:15:31;;;;;;;;;;;6.60;99.90;;;;;;4929438;28;20024;-76
2022/11/28 05:17:57;;;;;;;;;;;6.60;99.90;;;;;;4741469;28;19933;-74
2022/11/28 05:20:23;;;;;;;;;;;6.60;99.90;;;;;;4947898;28;19934;-74
2022/11/28 05:22:51;;;;;;;;;;;6.60;99.90;;;;;;4763907;28;20659;-73
2022/11/28 05:25:17;;;;;;;;;;;6.60;99.90;;;;;;4928875;28;20005;-74
2022/11/28 05:27:43;;;;;;;;;;;6.60;99.90;;;;;;4772381;28;21249;-73
2022/11/28 05:30:09;;;;;;;;;;;6.70;99.90;;;;;;4551131;28;20045;-73
2022/11/28 05:32:35;;;;;;;;;;;6.70;99.90;;;;;;4955260;28;19922;-74
2022/11/28 05:35:01;;;;;;;;;;;6.70;99.90;;;;;;4810422;28;20449;-74
2022/11/28 05:37:27;;;;;;;;;;;6.70;99.90;;;;;;4953560;28;20800;-74
2022/11/28 05:39:53;;;;;;;;;;;6.70;99.90;;;;;;4683334;29;19934;-74
2022/11/28 05:42:21;;;;;;;;;;;6.70;99.90;;;;;;4376898;28;21187;-74
2022/11/28 05:44:47;;;;;;;;;;;6.70;99.90;;;;;;4933883;28;19962;-74
2022/11/28 05:47:14;;;;;;;;;;;6.70;99.90;;;;;;4930953;28;20051;-74
2022/11/28 05:49:40;;;;;;;;;;;6.70;99.90;;;;;;4933953;28;19948;-74
2022/11/28 05:52:06;;;;;;;;;;;6.80;99.90;;;;;;4947444;28;19927;-74
2022/11/28 05:54:33;;;;;;;;;;;6.80;99.90;;;;;;4826544;28;20230;-74
2022/11/28 05:56:58;;;;;;;;;;;6.80;99.90;;;;;;4507813;28;20401;-74
2022/11/28 05:59:24;;;;;;;;;;;6.80;99.90;;;;;;4789796;28;19934;-74
2022/11/28 06:01:49;;;;;;;;;;;6.80;99.90;;;;;;4948554;28;19922;-74
2022/11/28 06:04:15;;;;;;;;;;;6.90;99.90;;;;;;4947575;28;20302;-74
2022/11/28 06:06:41;;;;;;;;;;;6.90;99.90;;;;;;4838118;28;20042;-74
2022/11/28 06:09:06;;;;;;;;;;;6.90;99.90;;;;;;4951942;28;19933;-74
2022/11/28 06:11:32;;;;;;;;;;;6.90;99.90;;;;;;4848764;28;20386;-75
2022/11/28 06:13:58;;;;;;;;;;;6.90;99.90;;;;;;4899362;28;20620;-74
2022/11/28 06:16:30;;;;;;;;;;;7.00;99.90;;;;;;4697346;28;20372;-74
2022/11/28 06:18:58;;;;;;;;;;;7.00;99.90;;;;;;4952281;28;20025;-75
2022/11/28 06:21:23;;;;;;;;;;;7.00;99.90;;;;;;4950911;28;20456;-75
2022/11/28 06:23:49;;;;;;;;;;;7.00;99.90;;;;;;4837887;28;19922;-75
2022/11/28 06:26:16;;;;;;;;;;;7.00;99.90;;;;;;4949889;28;19926;-75
2022/11/28 06:29:01;;;;;;;;;;;7.00;99.90;;;;;;4550477;28;19957;-74
2022/11/28 06:31:28;;;;;;;;;;;7.10;99.90;;;;;;4770971;28;19978;-74
2022/11/28 06:33:54;;;;;;;;;;;7.10;99.90;;;;;;4948639;28;19983;-74
2022/11/28 06:36:20;;;;;;;;;;;7.10;99.90;;;;;;4752285;28;19969;-74
2022/11/28 06:38:46;;;;;;;;;;;7.10;99.90;;;;;;4955448;28;19957;-74
2022/11/28 06:41:25;;;;;;;;;;;7.10;99.90;;;;;;4626972;28;19933;-74
2022/11/28 06:43:51;;;;;;;;;;;7.10;99.90;;;;;;4713950;28;20003;-74
2022/11/28 06:49:24;;;;;;;;;;;7.10;99.90;;;;;;4963576;28;19929;-74
2022/11/28 06:51:49;;;;;;;;;;;7.10;99.90;;;;;;4756637;28;20767;-74
2022/11/28 06:54:15;;;;;;;;;;;7.10;99.90;;;;;;4956023;28;19969;-74
2022/11/28 06:56:41;;;;;;;;;;;7.10;99.90;;;;;;4686737;28;19969;-74
2022/11/28 06:59:06;;;;;;;;;;;7.20;99.90;;;;;;4967893;28;19972;-74
2022/11/28 07:01:33;;;;;;;;;;;7.20;99.90;;;;;;4956392;28;20385;-74
2022/11/28 07:03:58;;;;;;;;;;;7.20;99.90;;;;;;4699279;28;20724;-74
2022/11/28 07:06:25;;;;;;;;;;;7.20;99.90;;;;;;4934036;28;19965;-75
2022/11/28 07:08:50;;;;;;;;;;;7.20;99.90;;;;;;4746491;28;19949;-77
2022/11/28 07:11:17;;;;;;;;;;;7.20;99.90;;;;;;4956698;28;19922;-77
2022/11/28 07:14:14;;;;;;;;;;;7.20;99.90;;;;;;4459945;28;20712;-76
2022/11/28 07:16:39;;;;;;;;;;;7.20;99.90;;;;;;4964982;28;19926;-75
2022/11/28 07:22:15;;;;;;;;;;;7.20;99.90;;;;;;4959321;28;19944;-76
2022/11/28 07:24:43;;;;;;;;;;;7.20;99.90;;;;;;4715659;29;20352;-73
2022/11/28 07:27:09;;;;;;;;;;;7.20;99.90;;;;;;4776415;28;19944;-75
2022/11/28 07:29:35;;;;;;;;;;;7.20;99.90;;;;;;4966719;28;19926;-76
2022/11/28 07:35:23;;;;;;;;;;;7.20;99.90;;;;;;4792777;28;19929;-75
2022/11/28 07:38:23;;;;;;;;;;;7.20;99.90;;;;;;4940480;28;19922;-75
2022/11/28 07:40:49;;;;;;;;;;;7.20;99.90;;;;;;4577434;28;19928;-75
2022/11/28 07:43:15;;;;;;;;;;;7.20;99.90;;;;;;4969395;28;19926;-75
2022/11/28 07:45:40;;;;;;;;;;;7.20;99.90;;;;;;4809469;28;19923;-75
2022/11/28 07:48:06;;;;;;;;;;;7.20;99.90;;;;;;4956760;28;19938;-75
2022/11/28 07:50:31;;;;;;;;;;;7.20;99.90;;;;;;4841178;28;19999;-75
2022/11/28 07:52:57;;;;;;;;;;;7.20;99.90;;;;;;4955104;28;19926;-75
2022/11/28 07:55:29;;;;;;;;;;;7.20;99.90;;;;;;4542076;28;20751;-75
2022/11/28 07:57:54;;;;;;;;;;;7.20;99.90;;;;;;4938990;28;19923;-75
2022/11/28 08:00:20;;;;;;;;;;;7.20;99.90;;;;;;4759947;28;20661;-75
2022/11/28 08:02:46;;;;;;;;;;;7.20;99.90;;;;;;4944851;28;19981;-75
2022/11/28 08:05:14;;;;;;;;;;;7.20;99.90;;;;;;4625641;28;20769;-74
2022/11/28 08:07:43;;;;;;;;;;;7.30;99.90;;;;;;4543188;29;19978;-75
2022/11/28 08:10:08;;;;;;;;;;;7.30;99.90;;;;;;4953237;28;19925;-75
2022/11/28 08:12:34;;;;;;;;;;;7.30;99.90;;;;;;4818019;28;19933;-75
2022/11/28 08:15:00;;;;;;;;;;;7.30;99.90;;;;;;4961607;28;20357;-75
2022/11/28 08:17:25;;;;;;;;;;;7.30;99.90;;;;;;4743423;28;20346;-75
2022/11/28 08:19:51;;;;;;;;;;;7.30;99.90;;;;;;4935761;28;19930;-75
2022/11/28 08:22:16;;;;;;;;;;;7.30;99.90;;;;;;4909648;28;19923;-75
2022/11/28 08:24:42;;;;;;;;;;;7.40;99.90;;;;;;4950497;28;19949;-75
2022/11/28 08:27:07;;;;;;;;;;;7.40;99.90;;;;;;4969237;28;20021;-75
2022/11/28 08:29:33;;;;;;;;;;;7.40;99.90;;;;;;4973865;28;19926;-75
2022/11/28 08:31:59;;;;;;;;;;;7.40;99.90;;;;;;4962083;28;20009;-75
2022/11/28 08:34:25;;;;;;;;;;;7.40;99.90;;;;;;4965701;28;19969;-75
2022/11/28 08:36:50;;;;;;;;;;;7.50;99.90;;;;;;4961684;28;19926;-75
2022/11/28 08:39:16;;;;;;;;;;;7.50;99.90;;;;;;4941277;28;19933;-75
2022/11/28 08:41:41;;;;;;;;;;;7.50;99.90;;;;;;4951721;28;20408;-75
2022/11/28 08:44:07;;;;;;;;;;;7.60;99.90;;;;;;4945674;29;20418;-75
2022/11/28 08:46:33;;;;;;;;;;;7.60;99.90;;;;;;4950961;28;19952;-75
2022/11/28 08:49:00;;;;;;;;;;;7.60;99.90;;;;;;4950398;28;19926;-75
2022/11/28 08:51:26;;;;;;;;;;;7.60;99.90;;;;;;4953749;28;19950;-75
2022/11/28 08:53:52;;;;;;;;;;;7.70;99.90;;;;;;4935756;28;19922;-75
2022/11/28 08:56:17;;;;;;;;;;;7.70;99.90;;;;;;4948581;28;19976;-75
2022/11/28 08:58:43;;;;;;;;;;;7.80;99.90;;;;;;4952263;28;20357;-75
2022/11/28 09:01:27;;;;;;;;;;;7.80;99.90;;;;;;4949470;28;19953;-75
2022/11/28 09:03:53;;;;;;;;;;;7.80;99.90;;;;;;4936777;28;19950;-75
2022/11/28 09:06:19;;;;;;;;;;;7.90;99.90;;;;;;4970940;28;19949;-75
2022/11/28 09:08:45;;;;;;;;;;;7.90;99.90;;;;;;4948668;28;20339;-75
2022/11/28 09:11:13;;;;;;;;;;;7.90;99.90;;;;;;4950806;28;20378;-75
2022/11/28 09:13:38;;;;;;;;;;;8.00;99.90;;;;;;4946400;28;19970;-75
2022/11/28 09:16:04;;;;;;;;;;;8.00;99.90;;;;;;4937910;28;19968;-75
2022/11/28 09:18:30;;;;;;;;;;;8.00;99.90;;;;;;4964641;28;19974;-75
2022/11/28 09:20:57;;;;;;;;;;;8.00;99.90;;;;;;4952456;28;19981;-75
2022/11/28 09:23:22;;;;;;;;;;;8.10;99.90;;;;;;4939129;28;19922;-75
2022/11/28 09:25:48;;;;;;;;;;;8.10;99.90;;;;;;4953273;28;20013;-75
2022/11/28 09:28:13;;;;;;;;;;;8.10;99.90;;;;;;4975866;28;19930;-75
2022/11/28 09:30:39;;;;;;;;;;;8.10;99.90;;;;;;4969898;28;19977;-75
2022/11/28 09:33:05;;;;;;;;;;;8.10;99.90;;;;;;4979160;28;20329;-75
2022/11/28 09:35:31;;;;;;;;;;;8.10;99.90;;;;;;4966694;28;20269;-75
2022/11/28 09:37:58;;;;;;;;;;;8.20;99.90;;;;;;4973157;28;19922;-77
2022/11/28 09:40:32;;;;;;;;;;;8.20;99.90;;;;;;4952669;28;19954;-77
2022/11/28 09:43:01;;;;;;;;;;;8.20;99.90;;;;;;4972186;28;20017;-76
2022/11/28 09:45:27;;;;;;;;;;;8.20;99.90;;;;;;4958255;28;20292;-76
2022/11/28 09:48:13;;;;;;;;;;;8.10;99.90;;;;;;4973494;28;20002;-76
2022/11/28 09:50:39;;;;;;;;;;;8.20;99.90;;;;;;4976668;28;19929;-76
2022/11/28 09:53:04;;;;;;;;;;;8.20;99.90;;;;;;4943402;28;19926;-76
2022/11/28 09:55:59;;;;;;;;;;;8.20;99.90;;;;;;4941482;28;19929;-76
2022/11/28 09:58:44;;;;;;;;;;;8.20;99.90;;;;;;4964416;28;19930;-76
2022/11/28 10:01:09;;;;;;;;;;;8.20;99.90;;;;;;4958418;28;19930;-76
2022/11/28 10:03:44;;;;;;;;;;;8.20;99.90;;;;;;4972228;28;19976;-76
2022/11/28 10:06:22;;;;;;;;;;;8.20;99.90;;;;;;4966197;28;19929;-76
2022/11/28 10:09:11;;;;;;;;;;;8.20;99.90;;;;;;4965952;28;19922;-76
2022/11/28 10:11:37;;;;;;;;;;;8.20;99.90;;;;;;4966212;28;19922;-76
2022/11/28 10:14:35;;;;;;;;;;;8.30;99.90;;;;;;4966476;28;19926;-76
2022/11/28 10:17:14;;;;;;;;;;;8.30;99.90;;;;;;4967261;28;19926;-76
2022/11/28 10:19:59;;;;;;;;;;;8.30;99.90;;;;;;4957447;28;19931;-76
2022/11/28 10:22:30;;;;;;;;;;;8.30;99.90;;;;;;4965124;28;19934;-76
2022/11/28 10:24:59;;;;;;;;;;;8.30;99.90;;;;;;4972238;28;19929;-76
2022/11/28 10:27:31;;;;;;;;;;;8.40;99.90;;;;;;4951333;28;20029;-76
2022/11/28 10:30:00;;;;;;;;;;;8.40;99.90;;;;;;4949640;28;19936;-76
2022/11/28 10:32:30;;;;;;;;;;;8.40;99.90;;;;;;4968822;28;20256;-76
2022/11/28 10:35:14;;;;;;;;;;;8.40;99.90;;;;;;4965307;28;20366;-76
2022/11/28 10:37:41;;;;;;;;;;;8.40;99.90;;;;;;4954208;28;19929;-76
2022/11/28 10:40:26;;;;;;;;;;;8.40;99.90;;;;;;4953322;28;19973;-76
2022/11/28 10:42:55;;;;;;;;;;;8.40;99.90;;;;;;4956087;28;20407;-76
2022/11/28 10:45:42;;;;;;;;;;;8.40;99.90;;;;;;4954190;28;19938;-76
2022/11/28 10:48:14;;;;;;;;;;;8.40;99.90;;;;;;4956004;28;19978;-76
2022/11/28 10:50:42;;;;;;;;;;;8.40;99.90;;;;;;4964757;28;19932;-76
2022/11/28 10:53:08;;;;;;;;;;;8.50;99.90;;;;;;4964186;28;20378;-76
2022/11/28 10:55:52;;;;;;;;;;;8.50;99.90;;;;;;4968463;28;20094;-76
2022/11/28 10:58:35;;;;;;;;;;;8.50;99.90;;;;;;4983457;28;20596;-76
2022/11/28 11:01:01;;;;;;;;;;;8.50;99.90;;;;;;4974867;28;19949;-76
2022/11/28 11:03:31;;;;;;;;;;;8.50;99.90;;;;;;4978424;28;19969;-76
2022/11/28 11:05:58;;;;;;;;;;;8.50;99.90;;;;;;4959206;28;19938;-76
2022/11/28 11:08:24;;;;;;;;;;;8.60;99.90;;;;;;4958485;28;19930;-76
2022/11/28 11:10:55;;;;;;;;;;;8.60;99.90;;;;;;4939717;28;19930;-76
2022/11/28 11:13:25;;;;;;;;;;;8.60;99.90;;;;;;4965052;28;20018;-76
2022/11/28 11:15:56;;;;;;;;;;;8.50;99.90;;;;;;4959837;28;19926;-76
2022/11/28 11:18:22;;;;;;;;;;;8.50;99.90;;;;;;4943276;28;20384;-76
2022/11/28 11:20:47;;;;;;;;;;;8.50;99.90;;;;;;4965106;28;19926;-76
2022/11/28 11:23:17;;;;;;;;;;;8.50;99.90;;;;;;4947995;28;19966;-76
2022/11/28 11:25:51;;;;;;;;;;;8.50;99.90;;;;;;4947081;28;19926;-76
2022/11/28 11:28:25;;;;;;;;;;;8.60;99.90;;;;;;4980150;28;19929;-76
2022/11/28 11:30:57;;;;;;;;;;;8.50;99.90;;;;;;4970109;28;19980;-76
2022/11/28 11:33:25;;;;;;;;;;;8.60;99.90;;;;;;4968442;28;19926;-76
2022/11/28 11:35:51;;;;;;;;;;;8.60;99.90;;;;;;4977602;28;20673;-76
2022/11/28 11:38:16;;;;;;;;;;;8.60;99.90;;;;;;4959761;28;19985;-76
2022/11/28 11:40:42;;;;;;;;;;;8.70;99.90;;;;;;4956083;28;19927;-76
2022/11/28 11:43:20;;;;;;;;;;;8.70;99.90;;;;;;4977955;28;19930;-76
2022/11/28 11:45:45;;;;;;;;;;;8.80;99.90;;;;;;4953604;28;19926;-76
2022/11/28 11:48:12;;;;;;;;;;;8.80;99.90;;;;;;4971488;28;19981;-76
2022/11/28 11:50:40;;;;;;;;;;;8.80;99.90;;;;;;4947239;28;20341;-76
2022/11/28 11:53:09;;;;;;;;;;;8.80;99.90;;;;;;4974205;28;20378;-76
2022/11/28 11:55:45;;;;;;;;;;;8.80;99.90;;;;;;4953835;28;19926;-76
2022/11/28 11:58:13;;;;;;;;;;;8.90;99.90;;;;;;4954646;28;19922;-76
2022/11/28 12:00:40;;;;;;;;;;;8.90;99.90;;;;;;4956638;28;19926;-76
2022/11/28 12:03:11;;;;;;;;;;;8.90;99.90;;;;;;4966536;28;19988;-76
2022/11/28 12:06:03;;;;;;;;;;;8.90;99.90;;;;;;4941888;28;19926;-76
2022/11/28 12:08:39;;;;;;;;;;;8.90;99.90;;;;;;4941341;28;19961;-76
2022/11/28 12:11:17;;;;;;;;;;;8.80;99.90;;;;;;4965279;28;19927;-76
2022/11/28 12:13:43;;;;;;;;;;;8.80;99.90;;;;;;4951185;28;20321;-76
2022/11/28 12:16:08;;;;;;;;;;;8.80;99.90;;;;;;4961246;28;20278;-76
2022/11/28 12:18:46;;;;;;;;;;;8.80;99.90;;;;;;4972818;28;19929;-76
2022/11/28 12:21:13;;;;;;;;;;;8.90;99.90;;;;;;4956825;28;19926;-75
2022/11/28 12:23:38;;;;;;;;;;;8.90;99.90;;;;;;4959048;28;20382;-75
2022/11/28 12:26:07;;;;;;;;;;;8.90;99.90;;;;;;4938728;28;19938;-75
2022/11/28 12:28:39;;;;;;;;;;;8.90;99.90;;;;;;4961996;28;19926;-75
2022/11/28 12:31:07;;;;;;;;;;;8.80;99.90;;;;;;4968574;28;19926;-75
2022/11/28 12:33:37;;;;;;;;;;;8.80;99.90;;;;;;4978575;28;19932;-75
2022/11/28 12:36:03;;;;;;;;;;;8.80;99.90;;;;;;4959628;28;19925;-75
2022/11/28 12:38:44;;;;;;;;;;;8.80;99.90;;;;;;4966637;28;20489;-75
2022/11/28 12:41:30;;;;;;;;;;;8.80;99.90;;;;;;4935268;29;19926;-75
2022/11/28 12:44:04;;;;;;;;;;;8.80;99.90;;;;;;4942599;28;20387;-75
2022/11/28 12:46:46;;;;;;;;;;;8.80;99.90;;;;;;4940729;28;19937;-75
2022/11/28 12:49:13;;;;;;;;;;;8.80;99.90;;;;;;4951602;28;20331;-75
2022/11/28 12:51:48;;;;;;;;;;;8.80;99.90;;;;;;4958026;28;19922;-75
2022/11/28 12:54:36;;;;;;;;;;;8.80;99.90;;;;;;4945914;28;20626;-75
2022/11/28 12:57:02;;;;;;;;;;;8.80;99.90;;;;;;4950789;28;19926;-75
2022/11/28 12:59:29;;;;;;;;;;;8.80;99.90;;;;;;4963335;28;20492;-75
2022/11/28 13:02:14;;;;;;;;;;;8.80;99.90;;;;;;4962239;28;19978;-75
2022/11/28 13:04:49;;;;;;;;;;;8.70;99.90;;;;;;4967177;28;20014;-75
2022/11/28 13:07:31;;;;;;;;;;;8.80;99.90;;;;;;4944510;28;20265;-75
2022/11/28 13:10:15;;;;;;;;;;;8.80;99.90;;;;;;4956051;28;19926;-75
2022/11/28 13:13:00;;;;;;;;;;;8.80;99.90;;;;;;4965806;28;19976;-75
2022/11/28 13:15:34;;;;;;;;;;;8.90;99.90;;;;;;4942041;28;20217;-75
2022/11/28 13:18:19;;;;;;;;;;;8.80;99.90;;;;;;4942962;28;19926;-75
2022/11/28 13:20:50;;;;;;;;;;;8.80;99.90;;;;;;4948754;28;19941;-75
2022/11/28 13:23:15;;;;;;;;;;;8.80;99.90;;;;;;4961158;28;20329;-75
2022/11/28 13:25:49;;;;;;;;;;;8.80;99.90;;;;;;4961797;28;19932;-75
2022/11/28 13:28:28;;;;;;;;;;;8.90;99.90;;;;;;4948972;28;20007;-75
2022/11/28 13:31:09;;;;;;;;;;;8.90;99.90;;;;;;4962438;28;20008;-75
2022/11/28 13:33:50;;;;;;;;;;;8.90;99.90;;;;;;4946353;28;20017;-75
2022/11/28 13:36:35;;;;;;;;;;;8.90;99.90;;;;;;4952661;28;19989;-75
2022/11/28 13:39:06;;;;;;;;;;;8.90;99.90;;;;;;4951547;28;19930;-75
2022/11/28 13:41:32;;;;;;;;;;;8.90;99.90;;;;;;4961864;28;19934;-75
2022/11/28 13:44:14;;;;;;;;;;;8.90;99.90;;;;;;4957489;28;20422;-75
2022/11/28 13:46:43;;;;;;;;;;;8.90;99.90;;;;;;4957782;28;20279;-75
2022/11/28 13:49:21;;;;;;;;;;;8.80;99.90;;;;;;4937451;28;19937;-75
2022/11/28 13:51:47;;;;;;;;;;;8.80;99.90;;;;;;4952033;28;20091;-75
2022/11/28 13:54:16;;;;;;;;;;;8.90;99.90;;;;;;4963806;28;20277;-75
2022/11/28 13:56:42;;;;;;;;;;;8.90;99.90;;;;;;4944582;28;19978;-75
2022/11/28 13:59:15;;;;;;;;;;;8.90;99.90;;;;;;4962899;28;19926;-75
2022/11/28 14:01:43;;;;;;;;;;;8.80;99.90;;;;;;4951046;28;19934;-75
2022/11/28 14:04:11;;;;;;;;;;;8.80;99.90;;;;;;4937135;28;20212;-75
2022/11/28 14:06:44;;;;;;;;;;;8.80;99.90;;;;;;4961640;28;19927;-75
2022/11/28 14:09:09;;;;;;;;;;;8.80;99.90;;;;;;4949566;28;20275;-75
2022/11/28 14:11:38;;;;;;;;;;;8.80;99.90;;;;;;4956432;28;19933;-75
2022/11/28 14:14:13;;;;;;;;;;;8.70;99.90;;;;;;4950520;28;19926;-75
2022/11/28 14:16:42;;;;;;;;;;;8.70;99.90;;;;;;4934229;28;19981;-75
2022/11/28 14:19:24;;;;;;;;;;;8.60;99.90;;;;;;4937575;28;20357;-75
2022/11/28 14:22:01;;;;;;;;;;;8.60;99.90;;;;;;4940705;28;19930;-75
2022/11/28 14:24:44;;;;;;;;;;;8.60;99.90;;;;;;4945208;28;20009;-76
2022/11/28 14:27:23;;;;;;;;;;;8.60;99.90;;;;;;4950704;28;19923;-75
2022/11/28 14:29:50;;;;;;;;;;;8.50;99.90;;;;;;4935110;28;19933;-75
2022/11/28 14:32:36;;;;;;;;;;;8.50;99.90;;;;;;4953386;28;19926;-75
2022/11/28 14:35:02;;;;;;;;;;;8.50;99.90;;;;;;4957705;28;20438;-75
2022/11/28 14:37:28;;;;;;;;;;;8.50;99.90;;;;;;4955545;28;19926;-75
2022/11/28 14:39:55;;;;;;;;;;;8.40;99.90;;;;;;4966608;28;19930;-75
2022/11/28 14:42:24;;;;;;;;;;;8.40;99.90;;;;;;4936469;28;20384;-75
2022/11/28 14:44:55;;;;;;;;;;;8.40;99.90;;;;;;4943640;28;19923;-76
2022/11/28 14:47:30;;;;;;;;;;;8.30;99.90;;;;;;4947452;29;20070;-75
2022/11/28 14:50:05;;;;;;;;;;;8.30;99.90;;;;;;4954751;28;19949;-75
2022/11/28 14:52:31;;;;;;;;;;;8.30;99.90;;;;;;4937991;29;20294;-75
2022/11/28 14:55:02;;;;;;;;;;;8.30;99.90;;;;;;4955621;28;19923;-75
2022/11/28 14:57:29;;;;;;;;;;;8.30;99.90;;;;;;4954633;28;20381;-76
2022/11/28 14:59:57;;;;;;;;;;;8.20;99.90;;;;;;4956651;28;20406;-75